sensor_id;sensor_type;location;lat;lon;timestamp;temperature;humidity
23063;DHT22;11699;43.704;10.430;2023-04-24T00:02:20;16.60;99.90
23063;DHT22;11699;43.704;10.430;2023-04-24T00:04:48;16.60;99.90
23063;DHT22;11699;43.704;10.430;2023-04-24T00:07:16;16.60;99.90
23063;DHT22;11699;43.704;10.430;2023-04-24T00:09:43;16.60;99.90
23063;DHT22;11699;43.704;10.430;2023-04-24T00:12:11;16.60;99.90
23063;DHT22;11699;43.704;10.430;2023-04-24T00:14:38;16.50;99.90
23063;DHT22;11699;43.704;10.430;2023-04-24T00:17:06;16.60;99.90
23063;DHT22;11699;43.704;10.430;2023-04-24T00:19:35;16.70;99.90
23063;DHT22;11699;43.704;10.430;2023-04-24T00:22:03;16.70;99.90
23063;DHT22;11699;43.704;10.430;2023-04-24T00:24:30;16.60;99.90
23063;DHT22;11699;43.704;10.430;2023-04-24T00:26:58;16.60;99.90
23063;DHT22;11699;43.704;10.430;2023-04-24T00:29:26;16.60;99.90
23063;DHT22;11699;43.704;10.430;2023-04-24T00:31:54;16.70;99.90
23063;DHT22;11699;43.704;10.430;2023-04-24T00:34:21;16.80;99.90
23063;DHT22;11699;43.704;10.430;2023-04-24T00:36:50;16.80;99.90
23063;DHT22;11699;43.704;10.430;2023-04-24T00:39:18;16.90;99.90
23063;DHT22;11699;43.704;10.430;2023-04-24T00:41:46;16.90;99.90
23063;DHT22;11699;43.704;10.430;2023-04-24T00:44:14;16.90;99.90
23063;DHT22;11699;43.704;10.430;2023-04-24T00:46:41;16.90;99.90
23063;DHT22;11699;43.704;10.430;2023-04-24T00:49:09;16.90;99.90
23063;DHT22;11699;43.704;10.430;2023-04-24T00:51:37;16.80;99.90
23063;DHT22;11699;43.704;10.430;2023-04-24T00:54:07;16.80;99.90
23063;DHT22;11699;43.704;10.430;2023-04-24T00:56:35;16.80;99.90
23063;DHT22;11699;43.704;10.430;2023-04-24T00:59:03;16.70;99.90
23063;DHT22;11699;43.704;10.430;2023-04-24T01:01:31;16.70;99.90
23063;DHT22;11699;43.704;10.430;2023-04-24T01:03:59;16.70;99.90
23063;DHT22;11699;43.704;10.430;2023-04-24T01:06:28;16.80;99.90
23063;DHT22;11699;43.704;10.430;2023-04-24T01:08:57;16.80;99.90
23063;DHT22;11699;43.704;10.430;2023-04-24T01:11:27;16.70;99.90
23063;DHT22;11699;43.704;10.430;2023-04-24T01:13:56;16.80;99.90
23063;DHT22;11699;43.704;10.430;2023-04-24T01:16:25;16.80;99.90
23063;DHT22;11699;43.704;10.430;2023-04-24T01:18:52;16.80;99.90
23063;DHT22;11699;43.704;10.430;2023-04-24T01:21:21;16.80;99.90
23063;DHT22;11699;43.704;10.430;2023-04-24T01:23:50;16.80;99.90
23063;DHT22;11699;43.704;10.430;2023-04-24T01:26:17;16.70;99.90
23063;DHT22;11699;43.704;10.430;2023-04-24T01:28:46;16.80;99.90
23063;DHT22;11699;43.704;10.430;2023-04-24T01:31:15;16.80;99.90
23063;DHT22;11699;43.704;10.430;2023-04-24T01:33:43;16.80;99.90
23063;DHT22;11699;43.704;10.430;2023-04-24T01:36:11;16.80;99.90
23063;DHT22;11699;43.704;10.430;2023-04-24T01:38:38;16.70;99.90
23063;DHT22;11699;43.704;10.430;2023-04-24T01:41:07;16.80;99.90
23063;DHT22;11699;43.704;10.430;2023-04-24T01:43:34;16.80;99.90
23063;DHT22;11699;43.704;10.430;2023-04-24T01:46:02;16.80;99.90
23063;DHT22;11699;43.704;10.430;2023-04-24T01:48:29;16.80;99.90
23063;DHT22;11699;43.704;10.430;2023-04-24T01:50:57;16.80;99.90
23063;DHT22;11699;43.704;10.430;2023-04-24T01:53:25;16.70;99.90
23063;DHT22;11699;43.704;10.430;2023-04-24T01:55:53;16.70;99.90
23063;DHT22;11699;43.704;10.430;2023-04-24T01:58:22;16.70;99.90
23063;DHT22;11699;43.704;10.430;2023-04-24T02:00:50;16.70;99.90
23063;DHT22;11699;43.704;10.430;2023-04-24T02:03:18;16.70;99.90
23063;DHT22;11699;43.704;10.430;2023-04-24T02:05:45;16.70;99.90
23063;DHT22;11699;43.704;10.430;2023-04-24T02:08:12;16.70;99.90
23063;DHT22;11699;43.704;10.430;2023-04-24T02:10:40;16.80;99.90
23063;DHT22;11699;43.704;10.430;2023-04-24T02:13:08;16.80;99.90
23063;DHT22;11699;43.704;10.430;2023-04-24T02:15:37;16.90;99.90
23063;DHT22;11699;43.704;10.430;2023-04-24T02:18:05;16.80;99.90
23063;DHT22;11699;43.704;10.430;2023-04-24T02:20:32;16.80;99.90
23063;DHT22;11699;43.704;10.430;2023-04-24T02:23:01;16.70;99.90
23063;DHT22;11699;43.704;10.430;2023-04-24T02:25:29;16.70;99.90
23063;DHT22;11699;43.704;10.430;2023-04-24T02:27:56;16.70;99.90
23063;DHT22;11699;43.704;10.430;2023-04-24T02:30:23;16.70;99.90
23063;DHT22;11699;43.704;10.430;2023-04-24T02:32:52;16.80;99.90
23063;DHT22;11699;43.704;10.430;2023-04-24T02:35:21;16.90;99.90
23063;DHT22;11699;43.704;10.430;2023-04-24T02:37:49;16.80;99.90
23063;DHT22;11699;43.704;10.430;2023-04-24T02:40:16;16.80;99.90
23063;DHT22;11699;43.704;10.430;2023-04-24T02:42:44;16.80;99.90
23063;DHT22;11699;43.704;10.430;2023-04-24T02:45:11;16.80;99.90
23063;DHT22;11699;43.704;10.430;2023-04-24T02:47:39;16.70;99.90
23063;DHT22;11699;43.704;10.430;2023-04-24T02:50:08;16.80;99.90
23063;DHT22;11699;43.704;10.430;2023-04-24T02:52:36;16.80;99.90
23063;DHT22;11699;43.704;10.430;2023-04-24T02:55:05;16.70;99.90
23063;DHT22;11699;43.704;10.430;2023-04-24T02:57:34;16.60;99.90
23063;DHT22;11699;43.704;10.430;2023-04-24T03:00:01;16.70;99.90
23063;DHT22;11699;43.704;10.430;2023-04-24T03:02:32;16.70;99.90
23063;DHT22;11699;43.704;10.430;2023-04-24T03:05:00;16.70;99.90
23063;DHT22;11699;43.704;10.430;2023-04-24T03:07:29;16.60;99.90
23063;DHT22;11699;43.704;10.430;2023-04-24T03:09:56;16.60;99.90
23063;DHT22;11699;43.704;10.430;2023-04-24T03:12:25;16.60;99.90
23063;DHT22;11699;43.704;10.430;2023-04-24T03:14:53;16.60;99.90
23063;DHT22;11699;43.704;10.430;2023-04-24T03:17:20;16.60;99.90
23063;DHT22;11699;43.704;10.430;2023-04-24T03:19:48;16.60;99.90
23063;DHT22;11699;43.704;10.430;2023-04-24T03:22:15;16.60;99.90
23063;DHT22;11699;43.704;10.430;2023-04-24T03:24:44;16.60;99.90
23063;DHT22;11699;43.704;10.430;2023-04-24T03:27:12;16.50;99.90
23063;DHT22;11699;43.704;10.430;2023-04-24T03:29:40;16.50;99.90
23063;DHT22;11699;43.704;10.430;2023-04-24T03:32:07;16.50;99.90
23063;DHT22;11699;43.704;10.430;2023-04-24T03:34:34;16.50;99.90
23063;DHT22;11699;43.704;10.430;2023-04-24T03:37:01;16.50;99.90
23063;DHT22;11699;43.704;10.430;2023-04-24T03:39:28;16.50;99.90
23063;DHT22;11699;43.704;10.430;2023-04-24T03:41:57;16.50;99.90
23063;DHT22;11699;43.704;10.430;2023-04-24T03:44:24;16.50;99.90
23063;DHT22;11699;43.704;10.430;2023-04-24T03:46:52;16.50;99.90
23063;DHT22;11699;43.704;10.430;2023-04-24T03:49:19;16.50;99.90
23063;DHT22;11699;43.704;10.430;2023-04-24T03:51:47;16.40;99.90
23063;DHT22;11699;43.704;10.430;2023-04-24T03:54:15;16.40;99.90
23063;DHT22;11699;43.704;10.430;2023-04-24T03:56:42;16.40;99.90
23063;DHT22;11699;43.704;10.430;2023-04-24T03:59:11;16.40;99.90
23063;DHT22;11699;43.704;10.430;2023-04-24T04:01:39;16.50;99.90
23063;DHT22;11699;43.704;10.430;2023-04-24T04:04:07;16.40;99.90
23063;DHT22;11699;43.704;10.430;2023-04-24T04:06:35;16.40;99.90
23063;DHT22;11699;43.704;10.430;2023-04-24T04:09:03;16.40;99.90
23063;DHT22;11699;43.704;10.430;2023-04-24T04:11:30;16.40;99.90
23063;DHT22;11699;43.704;10.430;2023-04-24T04:13:57;16.30;99.90
23063;DHT22;11699;43.704;10.430;2023-04-24T04:16:26;16.40;99.90
23063;DHT22;11699;43.704;10.430;2023-04-24T04:18:53;16.40;99.90
23063;DHT22;11699;43.704;10.430;2023-04-24T04:21:21;16.30;99.90
23063;DHT22;11699;43.704;10.430;2023-04-24T04:23:48;16.30;99.90
23063;DHT22;11699;43.704;10.430;2023-04-24T04:26:15;16.30;99.90
23063;DHT22;11699;43.704;10.430;2023-04-24T04:28:44;16.30;99.90
23063;DHT22;11699;43.704;10.430;2023-04-24T04:31:13;16.30;99.90
23063;DHT22;11699;43.704;10.430;2023-04-24T04:33:42;16.30;99.90
23063;DHT22;11699;43.704;10.430;2023-04-24T04:36:09;16.30;99.90
23063;DHT22;11699;43.704;10.430;2023-04-24T04:38:38;16.20;99.90
23063;DHT22;11699;43.704;10.430;2023-04-24T04:41:06;16.20;99.90
23063;DHT22;11699;43.704;10.430;2023-04-24T04:43:36;16.20;99.90
23063;DHT22;11699;43.704;10.430;2023-04-24T04:46:05;16.20;99.90
23063;DHT22;11699;43.704;10.430;2023-04-24T04:48:34;16.20;99.90
23063;DHT22;11699;43.704;10.430;2023-04-24T04:51:03;16.20;99.90
23063;DHT22;11699;43.704;10.430;2023-04-24T04:53:30;16.20;99.90
23063;DHT22;11699;43.704;10.430;2023-04-24T04:55:58;16.10;99.90
23063;DHT22;11699;43.704;10.430;2023-04-24T04:58:25;16.10;99.90
23063;DHT22;11699;43.704;10.430;2023-04-24T05:00:53;16.10;99.90
23063;DHT22;11699;43.704;10.430;2023-04-24T05:03:20;16.00;99.90
23063;DHT22;11699;43.704;10.430;2023-04-24T05:05:47;16.00;99.90
23063;DHT22;11699;43.704;10.430;2023-04-24T05:08:16;16.10;99.90
23063;DHT22;11699;43.704;10.430;2023-04-24T05:10:44;16.10;99.90
23063;DHT22;11699;43.704;10.430;2023-04-24T05:13:11;16.10;99.90
23063;DHT22;11699;43.704;10.430;2023-04-24T05:15:39;16.10;99.90
23063;DHT22;11699;43.704;10.430;2023-04-24T05:18:06;16.00;99.90
23063;DHT22;11699;43.704;10.430;2023-04-24T05:20:33;16.00;99.90
23063;DHT22;11699;43.704;10.430;2023-04-24T05:23:01;15.90;99.90
23063;DHT22;11699;43.704;10.430;2023-04-24T05:25:29;15.90;99.90
23063;DHT22;11699;43.704;10.430;2023-04-24T05:28:01;15.90;99.90
23063;DHT22;11699;43.704;10.430;2023-04-24T05:30:28;15.90;99.90
23063;DHT22;11699;43.704;10.430;2023-04-24T05:32:56;15.90;99.90
23063;DHT22;11699;43.704;10.430;2023-04-24T05:35:23;15.90;99.90
23063;DHT22;11699;43.704;10.430;2023-04-24T05:37:51;16.00;99.90
23063;DHT22;11699;43.704;10.430;2023-04-24T05:40:19;16.00;99.90
23063;DHT22;11699;43.704;10.430;2023-04-24T05:42:48;16.10;99.90
23063;DHT22;11699;43.704;10.430;2023-04-24T05:45:15;16.20;99.90
23063;DHT22;11699;43.704;10.430;2023-04-24T05:47:43;16.20;99.90
23063;DHT22;11699;43.704;10.430;2023-04-24T05:50:11;16.40;99.90
23063;DHT22;11699;43.704;10.430;2023-04-24T05:52:39;16.30;99.90
23063;DHT22;11699;43.704;10.430;2023-04-24T05:55:07;16.40;99.90
23063;DHT22;11699;43.704;10.430;2023-04-24T05:57:34;16.40;99.90
23063;DHT22;11699;43.704;10.430;2023-04-24T06:00:04;16.40;99.90
23063;DHT22;11699;43.704;10.430;2023-04-24T06:02:33;16.50;99.90
23063;DHT22;11699;43.704;10.430;2023-04-24T06:05:01;16.40;99.90
23063;DHT22;11699;43.704;10.430;2023-04-24T06:07:28;16.40;99.90
23063;DHT22;11699;43.704;10.430;2023-04-24T06:09:57;16.40;99.90
23063;DHT22;11699;43.704;10.430;2023-04-24T06:12:25;16.40;99.90
23063;DHT22;11699;43.704;10.430;2023-04-24T06:14:53;16.40;99.90
23063;DHT22;11699;43.704;10.430;2023-04-24T06:17:22;16.30;99.90
23063;DHT22;11699;43.704;10.430;2023-04-24T06:19:50;16.40;99.90
23063;DHT22;11699;43.704;10.430;2023-04-24T06:22:18;16.50;99.90
23063;DHT22;11699;43.704;10.430;2023-04-24T06:24:45;16.50;99.90
23063;DHT22;11699;43.704;10.430;2023-04-24T06:27:14;16.50;99.90
23063;DHT22;11699;43.704;10.430;2023-04-24T06:29:41;16.50;99.90
23063;DHT22;11699;43.704;10.430;2023-04-24T06:32:08;16.50;99.90
23063;DHT22;11699;43.704;10.430;2023-04-24T06:34:37;16.50;99.90
23063;DHT22;11699;43.704;10.430;2023-04-24T06:37:04;16.50;99.90
23063;DHT22;11699;43.704;10.430;2023-04-24T06:39:32;16.40;99.90
23063;DHT22;11699;43.704;10.430;2023-04-24T06:42:00;16.40;99.90
23063;DHT22;11699;43.704;10.430;2023-04-24T06:44:28;16.40;99.90
23063;DHT22;11699;43.704;10.430;2023-04-24T06:46:55;16.70;99.90
23063;DHT22;11699;43.704;10.430;2023-04-24T06:49:23;17.00;99.90
23063;DHT22;11699;43.704;10.430;2023-04-24T06:51:52;17.40;99.90
23063;DHT22;11699;43.704;10.430;2023-04-24T06:54:19;17.60;99.90
23063;DHT22;11699;43.704;10.430;2023-04-24T06:56:47;17.80;99.90
23063;DHT22;11699;43.704;10.430;2023-04-24T06:59:16;17.80;99.90
23063;DHT22;11699;43.704;10.430;2023-04-24T07:01:44;17.60;99.90
23063;DHT22;11699;43.704;10.430;2023-04-24T07:04:12;17.60;99.90
23063;DHT22;11699;43.704;10.430;2023-04-24T07:06:39;17.10;99.90
23063;DHT22;11699;43.704;10.430;2023-04-24T07:09:08;16.80;99.90
23063;DHT22;11699;43.704;10.430;2023-04-24T07:11:36;16.50;99.90
23063;DHT22;11699;43.704;10.430;2023-04-24T07:14:05;16.30;99.90
23063;DHT22;11699;43.704;10.430;2023-04-24T07:16:32;16.20;99.90
23063;DHT22;11699;43.704;10.430;2023-04-24T07:18:59;16.20;99.90
23063;DHT22;11699;43.704;10.430;2023-04-24T07:21:27;16.20;99.90
23063;DHT22;11699;43.704;10.430;2023-04-24T07:23:54;16.10;99.90
23063;DHT22;11699;43.704;10.430;2023-04-24T07:26:23;16.20;99.90
23063;DHT22;11699;43.704;10.430;2023-04-24T07:28:51;16.20;99.90
23063;DHT22;11699;43.704;10.430;2023-04-24T07:31:19;16.30;99.90
23063;DHT22;11699;43.704;10.430;2023-04-24T07:33:47;16.30;99.90
23063;DHT22;11699;43.704;10.430;2023-04-24T07:36:14;16.40;99.90
23063;DHT22;11699;43.704;10.430;2023-04-24T07:38:44;16.30;99.90
23063;DHT22;11699;43.704;10.430;2023-04-24T07:41:12;16.60;99.90
23063;DHT22;11699;43.704;10.430;2023-04-24T07:43:41;17.10;99.90
23063;DHT22;11699;43.704;10.430;2023-04-24T07:46:09;17.20;99.90
23063;DHT22;11699;43.704;10.430;2023-04-24T07:48:36;17.10;99.90
23063;DHT22;11699;43.704;10.430;2023-04-24T07:51:04;18.10;99.90
23063;DHT22;11699;43.704;10.430;2023-04-24T07:53:31;18.40;99.90
23063;DHT22;11699;43.704;10.430;2023-04-24T07:55:58;17.90;99.90
23063;DHT22;11699;43.704;10.430;2023-04-24T07:58:26;17.70;99.90
23063;DHT22;11699;43.704;10.430;2023-04-24T08:00:54;17.70;99.90
23063;DHT22;11699;43.704;10.430;2023-04-24T08:03:22;17.90;99.90
23063;DHT22;11699;43.704;10.430;2023-04-24T08:05:50;18.30;99.90
23063;DHT22;11699;43.704;10.430;2023-04-24T08:08:19;18.50;99.90
23063;DHT22;11699;43.704;10.430;2023-04-24T08:10:47;18.40;99.90
23063;DHT22;11699;43.704;10.430;2023-04-24T08:13:15;19.00;99.90
23063;DHT22;11699;43.704;10.430;2023-04-24T08:15:42;20.50;99.90
23063;DHT22;11699;43.704;10.430;2023-04-24T08:18:11;21.10;99.90
23063;DHT22;11699;43.704;10.430;2023-04-24T08:20:39;20.20;99.90
23063;DHT22;11699;43.704;10.430;2023-04-24T08:23:07;19.20;99.90
23063;DHT22;11699;43.704;10.430;2023-04-24T08:25:35;19.20;99.90
23063;DHT22;11699;43.704;10.430;2023-04-24T08:28:02;18.70;99.90
23063;DHT22;11699;43.704;10.430;2023-04-24T08:30:31;18.20;99.90
23063;DHT22;11699;43.704;10.430;2023-04-24T08:32:58;17.80;99.90
23063;DHT22;11699;43.704;10.430;2023-04-24T08:35:27;17.60;99.90
23063;DHT22;11699;43.704;10.430;2023-04-24T08:37:54;17.40;99.90
23063;DHT22;11699;43.704;10.430;2023-04-24T08:40:27;17.40;99.90
23063;DHT22;11699;43.704;10.430;2023-04-24T08:42:55;17.70;99.90
23063;DHT22;11699;43.704;10.430;2023-04-24T08:45:23;18.20;99.90
23063;DHT22;11699;43.704;10.430;2023-04-24T08:47:52;19.50;99.90
23063;DHT22;11699;43.704;10.430;2023-04-24T08:50:20;19.40;99.90
23063;DHT22;11699;43.704;10.430;2023-04-24T08:52:51;18.90;99.90
23063;DHT22;11699;43.704;10.430;2023-04-24T08:55:20;18.30;99.90
23063;DHT22;11699;43.704;10.430;2023-04-24T08:57:51;17.90;99.90
23063;DHT22;11699;43.704;10.430;2023-04-24T09:00:21;18.00;99.90
23063;DHT22;11699;43.704;10.430;2023-04-24T09:02:49;19.50;99.90
23063;DHT22;11699;43.704;10.430;2023-04-24T09:05:17;20.80;99.90
23063;DHT22;11699;43.704;10.430;2023-04-24T09:07:52;21.50;99.90
23063;DHT22;11699;43.704;10.430;2023-04-24T09:10:21;21.20;99.90
23063;DHT22;11699;43.704;10.430;2023-04-24T09:12:50;20.80;99.90
23063;DHT22;11699;43.704;10.430;2023-04-24T09:15:18;20.30;99.90
23063;DHT22;11699;43.704;10.430;2023-04-24T09:17:46;20.00;99.90
23063;DHT22;11699;43.704;10.430;2023-04-24T09:20:14;19.70;99.90
23063;DHT22;11699;43.704;10.430;2023-04-24T09:22:42;19.30;99.90
23063;DHT22;11699;43.704;10.430;2023-04-24T09:25:12;19.00;99.90
23063;DHT22;11699;43.704;10.430;2023-04-24T09:27:42;18.90;99.90
23063;DHT22;11699;43.704;10.430;2023-04-24T09:30:11;18.90;99.90
23063;DHT22;11699;43.704;10.430;2023-04-24T09:32:39;19.00;99.90
23063;DHT22;11699;43.704;10.430;2023-04-24T09:35:09;19.00;99.90
23063;DHT22;11699;43.704;10.430;2023-04-24T09:37:38;19.00;99.90
23063;DHT22;11699;43.704;10.430;2023-04-24T09:40:22;19.00;99.90
23063;DHT22;11699;43.704;10.430;2023-04-24T09:42:53;19.30;99.90
23063;DHT22;11699;43.704;10.430;2023-04-24T09:45:21;20.00;99.90
23063;DHT22;11699;43.704;10.430;2023-04-24T09:47:51;20.20;99.90
23063;DHT22;11699;43.704;10.430;2023-04-24T09:50:20;20.50;99.90
23063;DHT22;11699;43.704;10.430;2023-04-24T09:52:57;20.90;99.90
23063;DHT22;11699;43.704;10.430;2023-04-24T09:55:26;20.80;99.90
23063;DHT22;11699;43.704;10.430;2023-04-24T09:57:55;20.50;99.90
23063;DHT22;11699;43.704;10.430;2023-04-24T10:00:24;20.20;99.90
23063;DHT22;11699;43.704;10.430;2023-04-24T10:02:59;20.00;99.90
23063;DHT22;11699;43.704;10.430;2023-04-24T10:05:29;20.20;99.90
23063;DHT22;11699;43.704;10.430;2023-04-24T10:08:00;20.30;99.90
23063;DHT22;11699;43.704;10.430;2023-04-24T10:10:30;20.00;99.90
23063;DHT22;11699;43.704;10.430;2023-04-24T10:12:59;19.40;99.90
23063;DHT22;11699;43.704;10.430;2023-04-24T10:15:27;19.30;99.90
23063;DHT22;11699;43.704;10.430;2023-04-24T10:17:55;19.20;99.90
23063;DHT22;11699;43.704;10.430;2023-04-24T10:20:26;19.20;99.90
23063;DHT22;11699;43.704;10.430;2023-04-24T10:22:56;19.70;99.90
23063;DHT22;11699;43.704;10.430;2023-04-24T10:25:26;20.30;99.90
23063;DHT22;11699;43.704;10.430;2023-04-24T10:27:56;20.70;99.90
23063;DHT22;11699;43.704;10.430;2023-04-24T10:30:26;21.20;99.90
23063;DHT22;11699;43.704;10.430;2023-04-24T10:32:54;21.30;99.90
23063;DHT22;11699;43.704;10.430;2023-04-24T10:35:22;21.80;99.90
23063;DHT22;11699;43.704;10.430;2023-04-24T10:37:57;21.90;99.90
23063;DHT22;11699;43.704;10.430;2023-04-24T10:40:27;21.00;99.90
23063;DHT22;11699;43.704;10.430;2023-04-24T10:42:58;20.90;99.90
23063;DHT22;11699;43.704;10.430;2023-04-24T10:45:26;20.90;99.90
23063;DHT22;11699;43.704;10.430;2023-04-24T10:47:57;20.70;99.90
23063;DHT22;11699;43.704;10.430;2023-04-24T10:50:26;20.30;99.90
23063;DHT22;11699;43.704;10.430;2023-04-24T10:53:05;20.00;99.90
23063;DHT22;11699;43.704;10.430;2023-04-24T10:55:47;20.40;99.90
23063;DHT22;11699;43.704;10.430;2023-04-24T10:58:17;21.00;99.90
23063;DHT22;11699;43.704;10.430;2023-04-24T11:00:56;20.70;99.90
23063;DHT22;11699;43.704;10.430;2023-04-24T11:03:26;20.40;99.90
23063;DHT22;11699;43.704;10.430;2023-04-24T11:05:57;19.90;99.90
23063;DHT22;11699;43.704;10.430;2023-04-24T11:08:27;19.60;99.90
23063;DHT22;11699;43.704;10.430;2023-04-24T11:11:00;19.70;99.90
23063;DHT22;11699;43.704;10.430;2023-04-24T11:14:03;20.00;99.90
23063;DHT22;11699;43.704;10.430;2023-04-24T11:16:35;20.30;99.90
23063;DHT22;11699;43.704;10.430;2023-04-24T11:19:06;20.50;99.90
23063;DHT22;11699;43.704;10.430;2023-04-24T11:21:41;20.40;99.90
23063;DHT22;11699;43.704;10.430;2023-04-24T11:24:26;19.90;99.90
23063;DHT22;11699;43.704;10.430;2023-04-24T11:26:54;20.30;99.90
23063;DHT22;11699;43.704;10.430;2023-04-24T11:29:38;20.50;99.90
23063;DHT22;11699;43.704;10.430;2023-04-24T11:32:23;21.00;99.90
23063;DHT22;11699;43.704;10.430;2023-04-24T11:34:53;21.60;99.90
23063;DHT22;11699;43.704;10.430;2023-04-24T11:37:21;22.50;99.90
23063;DHT22;11699;43.704;10.430;2023-04-24T11:39:51;22.80;99.90
23063;DHT22;11699;43.704;10.430;2023-04-24T11:42:20;23.20;99.90
23063;DHT22;11699;43.704;10.430;2023-04-24T11:44:51;23.80;99.90
23063;DHT22;11699;43.704;10.430;2023-04-24T11:47:19;23.70;99.90
23063;DHT22;11699;43.704;10.430;2023-04-24T11:49:49;24.00;99.90
23063;DHT22;11699;43.704;10.430;2023-04-24T11:52:17;23.80;99.90
23063;DHT22;11699;43.704;10.430;2023-04-24T11:54:48;23.60;99.90
23063;DHT22;11699;43.704;10.430;2023-04-24T11:57:19;23.20;99.90
23063;DHT22;11699;43.704;10.430;2023-04-24T11:59:49;23.40;99.90
23063;DHT22;11699;43.704;10.430;2023-04-24T12:02:23;23.60;99.90
23063;DHT22;11699;43.704;10.430;2023-04-24T12:04:52;23.20;99.90
23063;DHT22;11699;43.704;10.430;2023-04-24T12:07:21;23.30;99.90
23063;DHT22;11699;43.704;10.430;2023-04-24T12:09:57;23.30;99.90
23063;DHT22;11699;43.704;10.430;2023-04-24T12:12:26;23.40;99.90
23063;DHT22;11699;43.704;10.430;2023-04-24T12:14:57;23.40;99.90
23063;DHT22;11699;43.704;10.430;2023-04-24T12:17:26;23.50;99.90
23063;DHT22;11699;43.704;10.430;2023-04-24T12:19:57;23.20;99.90
23063;DHT22;11699;43.704;10.430;2023-04-24T12:22:25;23.40;99.90
23063;DHT22;11699;43.704;10.430;2023-04-24T12:24:56;23.40;99.90
23063;DHT22;11699;43.704;10.430;2023-04-24T12:27:24;23.30;99.90
23063;DHT22;11699;43.704;10.430;2023-04-24T12:29:53;23.20;99.90
23063;DHT22;11699;43.704;10.430;2023-04-24T12:32:22;23.50;99.90
23063;DHT22;11699;43.704;10.430;2023-04-24T12:34:51;23.90;99.90
23063;DHT22;11699;43.704;10.430;2023-04-24T12:37:18;24.00;99.90
23063;DHT22;11699;43.704;10.430;2023-04-24T12:39:59;24.00;99.90
23063;DHT22;11699;43.704;10.430;2023-04-24T12:42:27;24.00;99.90
23063;DHT22;11699;43.704;10.430;2023-04-24T12:45:00;23.70;99.90
23063;DHT22;11699;43.704;10.430;2023-04-24T12:47:29;23.70;99.90
23063;DHT22;11699;43.704;10.430;2023-04-24T12:49:57;23.60;99.90
23063;DHT22;11699;43.704;10.430;2023-04-24T12:52:25;23.40;99.90
23063;DHT22;11699;43.704;10.430;2023-04-24T12:54:53;23.40;99.90
23063;DHT22;11699;43.704;10.430;2023-04-24T12:57:21;23.30;99.90
23063;DHT22;11699;43.704;10.430;2023-04-24T12:59:49;23.50;99.90
23063;DHT22;11699;43.704;10.430;2023-04-24T13:02:17;23.90;99.90
23063;DHT22;11699;43.704;10.430;2023-04-24T13:04:46;23.80;99.90
23063;DHT22;11699;43.704;10.430;2023-04-24T13:07:14;23.80;99.90
23063;DHT22;11699;43.704;10.430;2023-04-24T13:09:42;24.00;99.90
23063;DHT22;11699;43.704;10.430;2023-04-24T13:12:11;24.20;99.90
23063;DHT22;11699;43.704;10.430;2023-04-24T13:14:38;24.40;99.90
23063;DHT22;11699;43.704;10.430;2023-04-24T13:17:06;24.60;99.90
23063;DHT22;11699;43.704;10.430;2023-04-24T13:19:39;24.40;99.90
23063;DHT22;11699;43.704;10.430;2023-04-24T13:22:09;23.80;99.90
23063;DHT22;11699;43.704;10.430;2023-04-24T13:24:37;23.40;99.90
23063;DHT22;11699;43.704;10.430;2023-04-24T13:27:07;23.50;99.90
23063;DHT22;11699;43.704;10.430;2023-04-24T13:29:34;23.50;99.90
23063;DHT22;11699;43.704;10.430;2023-04-24T13:32:01;23.30;99.90
23063;DHT22;11699;43.704;10.430;2023-04-24T13:34:29;23.30;99.90
23063;DHT22;11699;43.704;10.430;2023-04-24T13:36:57;22.90;99.90
23063;DHT22;11699;43.704;10.430;2023-04-24T13:39:26;23.00;99.90
23063;DHT22;11699;43.704;10.430;2023-04-24T13:41:54;22.90;99.90
23063;DHT22;11699;43.704;10.430;2023-04-24T13:44:22;22.80;99.90
23063;DHT22;11699;43.704;10.430;2023-04-24T13:46:52;23.00;99.90
23063;DHT22;11699;43.704;10.430;2023-04-24T13:49:20;23.20;99.90
23063;DHT22;11699;43.704;10.430;2023-04-24T13:51:48;23.80;99.90
23063;DHT22;11699;43.704;10.430;2023-04-24T13:54:16;23.80;99.90
23063;DHT22;11699;43.704;10.430;2023-04-24T13:56:44;23.50;99.90
23063;DHT22;11699;43.704;10.430;2023-04-24T13:59:12;23.50;99.90
23063;DHT22;11699;43.704;10.430;2023-04-24T14:01:40;23.50;99.90
23063;DHT22;11699;43.704;10.430;2023-04-24T14:04:08;23.20;99.90
23063;DHT22;11699;43.704;10.430;2023-04-24T14:06:35;22.90;99.90
23063;DHT22;11699;43.704;10.430;2023-04-24T14:09:03;22.60;99.90
23063;DHT22;11699;43.704;10.430;2023-04-24T14:11:30;22.80;99.90
23063;DHT22;11699;43.704;10.430;2023-04-24T14:13:59;22.60;99.90
23063;DHT22;11699;43.704;10.430;2023-04-24T14:16:28;21.90;99.90
23063;DHT22;11699;43.704;10.430;2023-04-24T14:18:56;22.10;99.90
23063;DHT22;11699;43.704;10.430;2023-04-24T14:21:23;22.20;99.90
23063;DHT22;11699;43.704;10.430;2023-04-24T14:23:51;22.50;99.90
23063;DHT22;11699;43.704;10.430;2023-04-24T14:26:19;22.50;99.90
23063;DHT22;11699;43.704;10.430;2023-04-24T14:28:47;22.50;99.90
23063;DHT22;11699;43.704;10.430;2023-04-24T14:31:16;22.60;99.90
23063;DHT22;11699;43.704;10.430;2023-04-24T14:33:43;22.70;99.90
23063;DHT22;11699;43.704;10.430;2023-04-24T14:36:11;22.70;99.90
23063;DHT22;11699;43.704;10.430;2023-04-24T14:38:39;22.80;99.90
23063;DHT22;11699;43.704;10.430;2023-04-24T14:41:07;22.70;99.90
23063;DHT22;11699;43.704;10.430;2023-04-24T14:43:36;22.30;99.90
23063;DHT22;11699;43.704;10.430;2023-04-24T14:46:03;21.90;99.90
23063;DHT22;11699;43.704;10.430;2023-04-24T14:48:32;21.80;99.90
23063;DHT22;11699;43.704;10.430;2023-04-24T14:50:59;21.80;99.90
23063;DHT22;11699;43.704;10.430;2023-04-24T14:53:27;22.00;99.90
23063;DHT22;11699;43.704;10.430;2023-04-24T14:55:54;21.90;99.90
23063;DHT22;11699;43.704;10.430;2023-04-24T14:58:21;21.90;99.90
23063;DHT22;11699;43.704;10.430;2023-04-24T15:00:49;22.00;99.90
23063;DHT22;11699;43.704;10.430;2023-04-24T15:03:18;21.70;99.90
23063;DHT22;11699;43.704;10.430;2023-04-24T15:05:48;21.60;99.90
23063;DHT22;11699;43.704;10.430;2023-04-24T15:08:16;21.60;99.90
23063;DHT22;11699;43.704;10.430;2023-04-24T15:10:44;21.20;99.90
23063;DHT22;11699;43.704;10.430;2023-04-24T15:13:11;21.10;99.90
23063;DHT22;11699;43.704;10.430;2023-04-24T15:15:39;21.20;99.90
23063;DHT22;11699;43.704;10.430;2023-04-24T15:18:08;21.00;99.90
23063;DHT22;11699;43.704;10.430;2023-04-24T15:20:37;20.80;99.90
23063;DHT22;11699;43.704;10.430;2023-04-24T15:23:09;20.50;99.90
23063;DHT22;11699;43.704;10.430;2023-04-24T15:25:37;20.40;99.90